createdAt,value
2022-11-09T00:01:49.544Z,8.71
2022-11-09T00:06:53.765Z,9.09
2022-11-09T00:11:56.510Z,8.61
2022-11-09T00:16:59.224Z,8.95
2022-11-09T00:22:01.870Z,9.16
2022-11-09T00:27:05.744Z,8.22
2022-11-09T00:32:18.651Z,9.27
2022-11-09T00:37:21.423Z,9.23
2022-11-09T00:42:24.335Z,8.79
2022-11-09T00:47:27.234Z,8.72
2022-11-09T00:52:29.940Z,9.02
2022-11-09T00:57:33.809Z,8.28
2022-11-09T01:02:37.758Z,9.02
2022-11-09T01:07:40.658Z,9.50
2022-11-09T01:12:43.433Z,9.50
2022-11-09T01:17:46.546Z,9.50
2022-11-09T01:22:49.263Z,8.42
2022-11-09T01:27:51.953Z,9.81
2022-11-09T01:32:54.634Z,9.13
2022-11-09T01:37:57.309Z,10.02
2022-11-09T01:43:06.556Z,9.23
2022-11-09T01:48:16.520Z,9.46
2022-11-09T01:53:23.368Z,9.24
2022-11-09T01:58:33.545Z,8.47
2022-11-09T02:03:41.276Z,8.90
2022-11-09T02:08:45.438Z,9.42
2022-11-09T02:13:54.733Z,10.00
2022-11-09T02:18:59.705Z,9.56
2022-11-09T02:24:02.443Z,9.51
2022-11-09T02:29:09.755Z,9.52
2022-11-09T02:34:16.113Z,9.67
2022-11-09T02:39:21.601Z,10.22
2022-11-09T02:44:26.746Z,10.00
2022-11-09T02:49:29.637Z,9.78
2022-11-09T02:54:32.326Z,9.03
2022-11-09T02:59:35.390Z,10.02
2022-11-09T03:04:38.180Z,8.90
2022-11-09T03:09:40.891Z,9.24
2022-11-09T03:14:43.540Z,9.59
2022-11-09T03:19:46.221Z,8.98
2022-11-09T03:24:49.137Z,10.10
2022-11-09T03:29:51.840Z,9.39
2022-11-09T03:34:54.560Z,9.11
2022-11-09T03:39:57.691Z,9.20
2022-11-09T03:45:06.597Z,9.52
2022-11-09T03:50:10.354Z,9.29
2022-11-09T03:55:14.978Z,9.94
2022-11-09T04:00:20.372Z,9.44
2022-11-09T04:05:23.358Z,10.07
2022-11-09T04:10:27.587Z,10.14
2022-11-09T04:15:31.018Z,9.77
2022-11-09T04:20:42.070Z,9.69
2022-11-09T04:25:44.783Z,10.06
2022-11-09T04:30:47.528Z,9.41
2022-11-09T04:35:50.586Z,9.36
2022-11-09T04:40:53.196Z,9.60
2022-11-09T04:45:56.008Z,9.84
2022-11-09T04:51:07.240Z,10.20
2022-11-09T04:56:10.095Z,10.31
2022-11-09T05:01:14.721Z,10.32
2022-11-09T05:06:35.470Z,9.91
2022-11-09T05:11:38.952Z,10.41
2022-11-09T05:16:41.936Z,9.47
2022-11-09T05:21:45.352Z,10.41
2022-11-09T05:26:49.131Z,10.15
2022-11-09T05:31:52.537Z,9.99
2022-11-09T05:36:58.220Z,9.75
2022-11-09T05:42:05.124Z,9.15
2022-11-09T05:47:07.776Z,10.37
2022-11-09T05:52:10.420Z,9.88
2022-11-09T05:57:13.117Z,10.25
2022-11-09T06:02:16.384Z,9.25
2022-11-09T06:07:20.281Z,9.30
2022-11-09T06:12:22.999Z,10.57
2022-11-09T06:17:25.713Z,10.90
2022-11-09T06:22:28.488Z,10.79
2022-11-09T06:27:31.137Z,11.42
2022-11-09T06:32:33.987Z,11.75
2022-11-09T06:37:37.120Z,12.73
2022-11-09T06:42:40.075Z,12.15
2022-11-09T06:47:42.759Z,12.31
2022-11-09T06:52:45.383Z,12.55
2022-11-09T06:57:48.792Z,12.84
2022-11-09T07:02:52.645Z,13.11
2022-11-09T07:07:55.529Z,13.12
2022-11-09T07:12:59.339Z,12.96
2022-11-09T07:18:04.252Z,12.71
2022-11-09T07:23:06.932Z,12.76
2022-11-09T07:28:19.733Z,12.89
2022-11-09T07:33:23.574Z,12.37
2022-11-09T07:38:36.592Z,12.90
2022-11-09T07:43:39.634Z,13.43
2022-11-09T07:48:42.392Z,13.54
2022-11-09T07:53:45.027Z,13.25
2022-11-09T07:58:50.764Z,13.53
2022-11-09T08:03:57.216Z,13.41
2022-11-09T08:08:59.986Z,12.43
2022-11-09T08:14:02.662Z,13.72
2022-11-09T08:19:05.785Z,13.89
2022-11-09T08:24:08.694Z,13.98
2022-11-09T08:29:13.341Z,13.76
2022-11-09T08:34:16.881Z,13.09
2022-11-09T08:39:19.623Z,14.17
2022-11-09T08:44:23.347Z,14.30
2022-11-09T08:49:26.828Z,14.45
2022-11-09T08:54:29.817Z,14.48
2022-11-09T08:59:32.714Z,14.48
2022-11-09T09:04:36.279Z,14.45
2022-11-09T09:09:40.140Z,14.15
2022-11-09T09:14:43.020Z,13.32
2022-11-09T09:19:49.962Z,14.14
2022-11-09T09:24:52.965Z,13.06
2022-11-09T09:29:55.886Z,14.32
2022-11-09T09:34:58.588Z,14.63
2022-11-09T09:40:01.743Z,13.74
2022-11-09T09:45:19.161Z,14.43
2022-11-09T09:50:25.952Z,14.46
2022-11-09T09:55:37.789Z,14.30
2022-11-09T10:00:43.107Z,14.31
2022-11-09T10:06:01.397Z,13.79
2022-11-09T10:11:23.991Z,13.90
2022-11-09T10:16:41.927Z,14.09
2022-11-09T10:21:59.409Z,13.95
2022-11-09T10:27:07.726Z,13.85
2022-11-09T10:32:20.045Z,13.76
2022-11-09T10:37:33.412Z,13.63
2022-11-09T10:42:37.067Z,13.39
2022-11-09T10:47:52.733Z,13.52
2022-11-09T10:53:10.122Z,13.61
2022-11-09T10:58:40.936Z,13.40
2022-11-09T11:03:45.991Z,13.57
2022-11-09T11:08:52.459Z,13.61
2022-11-09T11:14:17.148Z,13.58
2022-11-09T11:19:33.904Z,13.58
2022-11-09T11:24:48.541Z,13.52
2022-11-09T11:30:07.663Z,13.60
2022-11-09T11:35:37.429Z,13.54
2022-11-09T11:41:12.947Z,13.73
2022-11-09T11:46:23.080Z,12.78
2022-11-09T11:51:45.200Z,12.66
2022-11-09T11:57:08.805Z,13.63
2022-11-09T12:02:21.256Z,13.99
2022-11-09T12:07:39.492Z,13.98
2022-11-09T12:12:42.971Z,14.06
2022-11-09T12:18:04.523Z,14.04
2022-11-09T12:23:27.477Z,13.52
2022-11-09T12:28:40.206Z,13.97
2022-11-09T12:33:57.754Z,13.94
2022-11-09T12:39:27.704Z,14.02
2022-11-09T12:44:38.219Z,12.76
2022-11-09T12:49:45.112Z,13.90
2022-11-09T12:54:50.686Z,13.33
2022-11-09T12:59:59.805Z,13.91
2022-11-09T13:05:06.910Z,13.41
2022-11-09T13:10:35.306Z,13.40
2022-11-09T13:16:07.393Z,13.31
2022-11-09T13:21:22.277Z,13.78
2022-11-09T13:26:31.658Z,13.69
2022-11-09T13:32:05.249Z,13.69
2022-11-09T13:37:42.843Z,13.75
2022-11-09T13:42:59.018Z,13.04
2022-11-09T13:48:03.822Z,13.80
2022-11-09T13:53:28.930Z,13.54
2022-11-09T13:58:38.082Z,13.79
2022-11-09T14:03:41.539Z,13.58
2022-11-09T14:08:45.612Z,13.46
2022-11-09T14:14:03.300Z,13.77
2022-11-09T14:19:29.065Z,13.59
2022-11-09T14:24:34.369Z,13.36
2022-11-09T14:29:48.794Z,13.56
2022-11-09T14:34:52.440Z,12.95
2022-11-09T14:39:56.018Z,13.54
2022-11-09T14:45:00.446Z,13.62
2022-11-09T14:50:04.341Z,13.63
2022-11-09T14:55:12.090Z,13.46
2022-11-09T15:00:23.801Z,13.32
2022-11-09T15:05:41.987Z,13.06
2022-11-09T15:10:53.733Z,12.68
2022-11-09T15:15:57.219Z,12.80
2022-11-09T15:21:28.565Z,13.29
2022-11-09T15:26:40.172Z,13.24
2022-11-09T15:31:58.841Z,13.22
2022-11-09T15:37:02.402Z,12.07
2022-11-09T15:42:06.243Z,13.18
2022-11-09T15:47:24.198Z,13.20
2022-11-09T15:52:28.114Z,12.59
2022-11-09T15:57:32.547Z,13.12
2022-11-09T16:02:35.941Z,13.10
2022-11-09T16:07:47.542Z,12.93
2022-11-09T16:12:54.062Z,13.15
2022-11-09T16:17:57.587Z,13.01
2022-11-09T16:23:01.694Z,12.09
2022-11-09T16:28:05.289Z,13.11
2022-11-09T16:33:08.734Z,12.95
2022-11-09T16:38:12.224Z,12.09
2022-11-09T16:43:17.127Z,12.92
2022-11-09T16:48:21.205Z,11.56
2022-11-09T16:53:27.194Z,12.89
2022-11-09T16:58:31.003Z,12.87
2022-11-09T17:03:34.618Z,11.87
2022-11-09T17:08:42.435Z,12.28
2022-11-09T17:13:45.889Z,12.62
2022-11-09T17:18:49.412Z,12.46
2022-11-09T17:23:54.536Z,12.82
2022-11-09T17:28:58.368Z,12.25
2022-11-09T17:34:02.060Z,12.80
2022-11-09T17:39:06.380Z,12.35
2022-11-09T17:44:12.019Z,12.83
2022-11-09T17:49:16.807Z,12.58
2022-11-09T17:54:20.910Z,12.27
2022-11-09T17:59:26.832Z,12.71
2022-11-09T18:04:30.797Z,11.80
2022-11-09T18:09:41.223Z,12.45
2022-11-09T18:14:45.931Z,11.77
2022-11-09T18:19:50.097Z,12.42
2022-11-09T18:24:54.195Z,12.50
2022-11-09T18:29:58.263Z,12.12
2022-11-09T18:35:02.453Z,12.07
2022-11-09T18:40:07.743Z,11.74
2022-11-09T18:45:12.294Z,12.09
2022-11-09T18:50:16.733Z,12.56
2022-11-09T18:55:20.896Z,12.60
2022-11-09T19:00:25.140Z,12.33
2022-11-09T19:05:29.220Z,12.47
2022-11-09T19:10:40.851Z,12.50
2022-11-09T19:15:46.861Z,12.48
2022-11-09T19:20:51.045Z,12.12
2022-11-09T19:25:55.309Z,11.88
2022-11-09T19:30:59.642Z,12.41
2022-11-09T19:36:28.469Z,12.64
2022-11-09T19:41:27.963Z,12.40
2022-11-09T19:46:35.115Z,12.78
2022-11-09T19:51:39.957Z,12.15
2022-11-09T19:56:44.329Z,13.03
2022-11-09T20:01:48.496Z,12.47
2022-11-09T20:06:53.005Z,12.49
2022-11-09T20:12:15.517Z,12.47
2022-11-09T20:17:19.601Z,12.44
2022-11-09T20:22:23.921Z,12.58
2022-11-09T20:27:32.309Z,12.28
2022-11-09T20:32:36.703Z,12.62
2022-11-09T20:37:41.330Z,12.23
2022-11-09T20:42:45.460Z,11.91
2022-11-09T20:48:07.674Z,11.87
2022-11-09T20:53:23.559Z,12.64
2022-11-09T20:58:28.770Z,12.73
2022-11-09T21:03:33.542Z,12.38
2022-11-09T21:08:38.894Z,12.65
2022-11-09T21:13:45.413Z,12.25
2022-11-09T21:18:49.885Z,12.52
2022-11-09T21:24:12.706Z,12.50
2022-11-09T21:29:40.760Z,12.66
2022-11-09T21:34:44.660Z,12.62
2022-11-09T21:39:48.186Z,12.60
2022-11-09T21:44:52.770Z,12.16
2022-11-09T21:49:56.346Z,12.09
2022-11-09T21:54:59.756Z,11.69
2022-11-09T22:00:03.473Z,11.81
2022-11-09T22:05:07.185Z,12.42
2022-11-09T22:10:11.719Z,12.74
2022-11-09T22:15:34.158Z,12.77
2022-11-09T22:20:56.401Z,12.54
2022-11-09T22:26:02.749Z,12.30
2022-11-09T22:31:07.950Z,12.76
2022-11-09T22:36:14.017Z,12.75
2022-11-09T22:41:18.448Z,12.44
2022-11-09T22:46:22.081Z,12.55
2022-11-09T22:51:25.772Z,12.39
2022-11-09T22:56:29.245Z,12.51
2022-11-09T23:01:32.951Z,12.30
2022-11-09T23:06:37.257Z,12.85
2022-11-09T23:11:40.771Z,12.37
2022-11-09T23:16:44.268Z,12.29
2022-11-09T23:21:47.929Z,11.81
2022-11-09T23:26:51.364Z,12.31
2022-11-09T23:31:58.013Z,12.62
2022-11-09T23:37:01.417Z,12.04
2022-11-09T23:42:05.287Z,12.77
2022-11-09T23:47:08.898Z,12.42
2022-11-09T23:52:12.614Z,12.82
2022-11-09T23:57:16.271Z,12.60
